Time;durP1;ratioP1;P1;durP2;ratioP2;P2;SDS_P1;SDS_P2;PMS_P1;PMS_P2;Temp;Humidity;BMP_temperature;BMP_pressure;BME280_temperature;BME280_humidity;BME280_pressure;Samples;Min_cycle;Max_cycle;Signal;HPM_P1;HPM_P2
2022/05/05 00:01:51;;;;;;;2.27;2.10;;;;;;;13.81;90.40;95557.97;4355686;32;20184;-60
2022/05/05 00:04:21;;;;;;;3.07;2.87;;;;;;;13.83;91.16;95558.44;4368176;32;20207;-59
2022/05/05 00:06:50;;;;;;;2.13;2.03;;;;;;;13.91;90.23;95558.50;4381581;32;20189;-60
2022/05/05 00:09:21;;;;;;;2.63;2.33;;;;;;;13.84;89.75;95552.81;4373573;32;20206;-60
2022/05/05 00:14:34;;;;;;;2.53;2.43;;;;;;;13.68;91.78;95555.09;4357831;32;20262;-60
2022/05/05 00:17:08;;;;;;;2.67;2.10;;;;;;;13.78;91.21;95554.03;4376609;32;20195;-59
2022/05/05 00:19:41;;;;;;;2.80;2.30;;;;;;;13.59;91.36;95543.59;4382534;32;20195;-60
2022/05/05 00:22:07;;;;;;;2.30;2.10;;;;;;;13.74;90.83;95545.84;4358881;32;20378;-60
2022/05/05 00:24:34;;;;;;;3.83;2.53;;;;;;;13.81;90.73;95547.31;4331467;32;20203;-60
2022/05/05 00:27:00;;;;;;;2.47;2.30;;;;;;;13.53;91.53;95546.69;4360112;32;20189;-59
2022/05/05 00:29:27;;;;;;;2.30;2.20;;;;;;;13.83;91.09;95539.78;4370186;32;20184;-60
2022/05/05 00:32:06;;;;;;;3.63;2.13;;;;;;;13.88;90.41;95553.00;4390566;32;20239;-60
2022/05/05 00:34:32;;;;;;;2.27;2.17;;;;;;;13.99;90.26;95554.28;4391288;32;20180;-60
2022/05/05 00:37:11;;;;;;;2.60;2.40;;;;;;;13.96;90.25;95549.56;4355719;32;20187;-60
2022/05/05 00:39:38;;;;;;;1.90;1.80;;;;;;;13.70;90.27;95552.91;4377618;32;20210;-59
2022/05/05 00:42:10;;;;;;;2.30;2.00;;;;;;;13.75;90.07;95559.97;4380009;32;20256;-59
2022/05/05 00:44:36;;;;;;;2.20;2.10;;;;;;;13.68;90.81;95549.78;4362699;32;20280;-59
2022/05/05 00:47:22;;;;;;;1.90;1.80;;;;;;;13.81;89.75;95555.31;4365963;32;20180;-60
2022/05/05 00:49:49;;;;;;;2.17;2.07;;;;;;;13.73;89.74;95546.94;4390618;32;20188;-60
2022/05/05 00:52:15;;;;;;;2.50;2.30;;;;;;;13.71;90.57;95549.16;4390219;32;20179;-59
2022/05/05 00:54:43;;;;;;;2.30;2.20;;;;;;;13.71;90.87;95546.50;4389200;32;20181;-59
2022/05/05 00:57:15;;;;;;;2.43;2.03;;;;;;;13.84;90.41;95541.34;4373412;32;20240;-59
2022/05/05 00:59:43;;;;;;;2.83;2.10;;;;;;;13.61;90.31;95538.75;4369719;32;20240;-60
2022/05/05 01:02:11;;;;;;;2.87;2.47;;;;;;;13.56;90.82;95541.53;4367260;32;20250;-60
2022/05/05 01:04:37;;;;;;;2.83;2.10;;;;;;;13.42;91.71;95551.50;4376076;32;20294;-59
2022/05/05 01:07:04;;;;;;;2.83;2.30;;;;;;;13.50;91.16;95548.13;4376841;32;20189;-59
2022/05/05 01:09:34;;;;;;;2.50;2.30;;;;;;;13.69;90.32;95546.00;4365404;32;20246;-59
2022/05/05 01:12:09;;;;;;;2.43;2.20;;;;;;;13.74;89.61;95537.84;4381655;32;20184;-59
2022/05/05 01:14:36;;;;;;;2.40;2.20;;;;;;;13.82;89.68;95544.34;4390607;32;20224;-59
2022/05/05 01:17:25;;;;;;;3.60;2.30;;;;;;;13.65;89.79;95547.72;4375274;32;20186;-59
2022/05/05 01:19:51;;;;;;;2.33;2.10;;;;;;;13.67;90.51;95544.75;4387787;32;20184;-60
2022/05/05 01:22:39;;;;;;;2.13;2.03;;;;;;;13.60;89.95;95541.72;4384480;32;20176;-60
2022/05/05 01:28:12;;;;;;;2.60;2.40;;;;;;;13.62;90.60;95542.19;4388350;32;20235;-59
2022/05/05 01:30:44;;;;;;;2.10;2.00;;;;;;;13.48;91.55;95531.62;4405106;32;20270;-59
2022/05/05 01:33:23;;;;;;;2.50;2.40;;;;;;;13.41;90.91;95533.94;4386585;32;20272;-59
2022/05/05 01:35:52;;;;;;;2.80;2.40;;;;;;;13.43;91.45;95529.09;4403762;32;20188;-59
2022/05/05 01:38:20;;;;;;;2.30;2.10;;;;;;;13.31;91.58;95536.84;4389587;32;20165;-59
2022/05/05 01:40:50;;;;;;;3.27;2.10;;;;;;;13.24;92.00;95547.19;4377102;32;20215;-59
2022/05/05 01:43:22;;;;;;;2.50;2.03;;;;;;;13.21;92.15;95553.88;4386383;32;20192;-59
2022/05/05 01:45:49;;;;;;;2.53;2.33;;;;;;;13.37;91.53;95549.75;4388594;32;20226;-60
2022/05/05 01:48:16;;;;;;;3.47;2.10;;;;;;;13.31;91.39;95550.97;4383635;32;20196;-59
2022/05/05 01:50:48;;;;;;;2.53;2.40;;;;;;;13.49;91.15;95551.88;4388420;32;20253;-59
2022/05/05 01:53:15;;;;;;;4.17;2.17;;;;;;;13.49;90.24;95546.53;4378613;32;20196;-59
2022/05/05 01:55:42;;;;;;;2.50;2.23;;;;;;;13.51;90.80;95538.25;4365270;32;20288;-59
2022/05/05 01:58:09;;;;;;;2.53;2.20;;;;;;;13.49;89.76;95535.09;4345775;32;20207;-59
2022/05/05 02:00:34;;;;;;;4.87;2.10;;;;;;;13.50;90.16;95542.78;4381398;32;20232;-59
2022/05/05 02:03:01;;;;;;;3.67;2.33;;;;;;;13.24;91.23;95539.19;4377497;32;20257;-59
2022/05/05 02:05:27;;;;;;;3.47;2.70;;;;;;;13.17;90.93;95544.13;4359994;32;20192;-59
2022/05/05 02:07:59;;;;;;;2.50;2.40;;;;;;;13.00;91.13;95542.91;4368475;32;20185;-59
2022/05/05 02:10:24;;;;;;;2.30;2.20;;;;;;;12.99;91.95;95544.00;4389150;32;20236;-60
2022/05/05 02:12:53;;;;;;;2.17;2.07;;;;;;;13.01;92.28;95541.81;4387158;32;20184;-59
2022/05/05 02:15:19;;;;;;;2.93;2.00;;;;;;;13.28;91.30;95545.47;4390357;32;20205;-59
2022/05/05 02:17:46;;;;;;;2.03;1.97;;;;;;;13.22;91.53;95547.47;4389748;32;20192;-59
2022/05/05 02:20:12;;;;;;;2.37;2.17;;;;;;;13.12;91.49;95544.22;4391195;32;20195;-59
2022/05/05 02:22:50;;;;;;;3.90;1.93;;;;;;;13.20;91.14;95546.19;4375407;32;21195;-59
2022/05/05 02:25:17;;;;;;;5.23;2.33;;;;;;;13.29;91.14;95552.38;4383295;32;20196;-59
2022/05/05 02:27:51;;;;;;;2.43;2.23;;;;;;;13.07;91.61;95547.81;4382184;32;20187;-59
2022/05/05 02:30:29;;;;;;;2.47;2.27;;;;;;;13.16;90.61;95553.22;4362347;32;20195;-59
2022/05/05 02:32:56;;;;;;;3.93;2.00;;;;;;;13.28;90.88;95561.47;4384621;32;20231;-59
2022/05/05 02:35:23;;;;;;;2.10;2.00;;;;;;;13.28;89.73;95561.47;4386840;32;20215;-59
2022/05/05 02:40:36;;;;;;;1.67;1.60;;;;;;;13.17;90.95;95560.91;4386804;32;20207;-59
2022/05/05 02:43:02;;;;;;;1.73;1.73;;;;;;;13.27;90.43;95554.56;4375553;32;20192;-59
2022/05/05 02:45:30;;;;;;;2.23;2.13;;;;;;;13.27;89.96;95562.56;4389884;32;20224;-59
2022/05/05 02:47:55;;;;;;;2.10;2.00;;;;;;;13.13;89.84;95556.47;4407094;32;20235;-59
2022/05/05 02:50:22;;;;;;;2.13;1.90;;;;;;;13.20;90.61;95548.88;4386784;32;20196;-59
2022/05/05 02:52:49;;;;;;;2.07;1.97;;;;;;;13.26;90.40;95553.00;4391233;32;20203;-60
2022/05/05 02:55:16;;;;;;;2.10;2.00;;;;;;;13.26;89.87;95553.00;4393223;32;20206;-59
2022/05/05 02:58:01;;;;;;;1.93;1.83;;;;;;;13.31;89.53;95555.50;4376016;32;20210;-59
2022/05/05 03:00:28;;;;;;;1.70;1.60;;;;;;;13.19;90.55;95552.63;4382883;32;20188;-59
2022/05/05 03:02:53;;;;;;;2.43;2.33;;;;;;;13.15;90.45;95548.94;4384389;32;20240;-59
2022/05/05 03:05:18;;;;;;;2.10;2.00;;;;;;;13.15;90.35;95556.94;4385551;32;20222;-60
2022/05/05 03:07:47;;;;;;;3.27;2.03;;;;;;;13.14;90.31;95553.50;4374314;32;20237;-59
2022/05/05 03:10:13;;;;;;;3.00;1.73;;;;;;;13.21;90.45;95556.56;4378539;32;20207;-60
2022/05/05 03:12:41;;;;;;;3.30;2.07;;;;;;;13.33;90.22;95554.12;4395602;32;20226;-59
2022/05/05 03:15:08;;;;;;;2.67;1.57;;;;;;;13.31;89.44;95545.62;4392435;32;20245;-60
2022/05/05 03:17:50;;;;;;;2.20;2.07;;;;;;;13.28;89.61;95556.94;4393186;32;20196;-59
2022/05/05 03:20:16;;;;;;;3.00;2.30;;;;;;;13.26;89.66;95559.09;4350499;32;20188;-60
2022/05/05 03:22:56;;;;;;;2.00;1.90;;;;;;;13.02;90.23;95563.91;4386693;32;20244;-59
2022/05/05 03:25:24;;;;;;;2.30;2.20;;;;;;;13.07;89.55;95566.47;4369960;32;20259;-59
2022/05/05 03:27:49;;;;;;;2.73;1.83;;;;;;;13.15;89.67;95573.75;4401058;32;20219;-60
2022/05/05 03:30:36;;;;;;;1.83;1.70;;;;;;;13.24;89.41;95571.94;4392089;32;20180;-59
2022/05/05 03:33:04;;;;;;;3.17;2.87;;;;;;;13.31;89.18;95576.81;4389635;32;20184;-59
2022/05/05 03:35:30;;;;;;;2.10;2.00;;;;;;;13.14;90.01;95582.78;4392333;32;20223;-59
2022/05/05 03:38:10;;;;;;;1.97;1.83;;;;;;;13.14;90.04;95576.69;4383077;32;20184;-59
2022/05/05 03:40:35;;;;;;;1.93;1.83;;;;;;;13.19;90.32;95577.38;4382683;32;20207;-60
2022/05/05 03:43:02;;;;;;;1.90;1.80;;;;;;;13.25;89.57;95578.06;4364435;32;20192;-59
2022/05/05 03:45:28;;;;;;;2.07;1.67;;;;;;;13.27;89.45;95581.22;4377523;32;20198;-60
2022/05/05 03:47:55;;;;;;;3.40;2.07;;;;;;;13.13;89.52;95572.44;4387624;32;20228;-59
2022/05/05 03:50:22;;;;;;;2.00;1.90;;;;;;;12.89;91.04;95576.19;4390983;32;20211;-59
2022/05/05 03:53:15;;;;;;;2.27;2.17;;;;;;;13.15;90.06;95573.75;4393464;32;20184;-59
2022/05/05 03:55:42;;;;;;;2.10;2.00;;;;;;;13.01;90.46;95573.00;4380624;32;20287;-61
2022/05/05 03:58:12;;;;;;;3.27;2.87;;;;;;;13.18;89.41;95572.34;4388455;32;20282;-60
2022/05/05 04:00:40;;;;;;;2.70;2.33;;;;;;;13.29;89.86;95563.84;4382794;32;20282;-60
2022/05/05 04:03:32;;;;;;;2.70;2.00;;;;;;;13.23;88.76;95574.91;4382908;32;20179;-59
2022/05/05 04:06:03;;;;;;;2.23;2.13;;;;;;;13.23;89.01;95574.91;4375368;32;20226;-59
2022/05/05 04:08:31;;;;;;;1.90;1.80;;;;;;;13.29;89.22;95574.50;4343580;32;20271;-59
2022/05/05 04:10:57;;;;;;;2.50;2.40;;;;;;;13.12;89.81;95576.97;4374520;32;20234;-59
2022/05/05 04:13:25;;;;;;;2.60;2.40;;;;;;;13.22;89.78;95573.31;4359935;32;20219;-59
2022/05/05 04:15:52;;;;;;;2.03;1.93;;;;;;;13.20;89.85;95581.63;4378841;32;20189;-59
2022/05/05 04:18:20;;;;;;;8.60;2.23;;;;;;;13.27;89.70;95583.88;4381562;32;20185;-59
2022/05/05 04:20:52;;;;;;;3.40;2.70;;;;;;;13.29;89.76;95584.34;4352986;32;20189;-59
2022/05/05 04:23:18;;;;;;;7.93;2.97;;;;;;;13.23;89.08;95589.00;4361299;32;20236;-60
2022/05/05 04:25:47;;;;;;;2.67;2.47;;;;;;;13.19;89.25;95580.03;4382366;32;20192;-59
2022/05/05 04:28:30;;;;;;;2.50;2.40;;;;;;;13.25;88.92;95580.72;4371358;32;20189;-59
2022/05/05 04:30:56;;;;;;;3.50;2.10;;;;;;;13.26;89.02;95584.97;4368144;32;20239;-60
2022/05/05 04:33:23;;;;;;;5.80;2.40;;;;;;;13.29;89.14;95589.69;4358438;32;20180;-60
2022/05/05 04:35:53;;;;;;;6.43;2.50;;;;;;;13.26;90.14;95591.06;4389054;32;20188;-60
2022/05/05 04:38:23;;;;;;;6.20;2.30;;;;;;;13.35;89.38;95589.25;4378257;32;20215;-59
2022/05/05 04:40:49;;;;;;;2.97;1.93;;;;;;;13.45;88.61;95595.44;4391005;32;20214;-60
2022/05/05 04:43:35;;;;;;;3.90;2.20;;;;;;;13.38;88.83;95593.19;4388252;32;20188;-59
2022/05/05 04:46:03;;;;;;;1.90;1.80;;;;;;;13.42;89.00;95591.50;4391514;32;20208;-59
2022/05/05 04:48:29;;;;;;;11.50;2.97;;;;;;;13.37;88.63;95595.06;4380601;32;20180;-60
2022/05/05 04:50:54;;;;;;;5.40;2.10;;;;;;;13.47;88.66;95593.25;4369079;32;20237;-59
2022/05/05 04:56:42;;;;;;;4.10;2.27;;;;;;;13.53;88.55;95600.00;4353421;32;20232;-59
2022/05/05 04:59:10;;;;;;;3.90;2.73;;;;;;;13.57;88.23;95599.09;4372537;32;20284;-60
2022/05/05 05:01:37;;;;;;;6.67;2.40;;;;;;;13.35;88.04;95599.91;4364760;32;20208;-60
2022/05/05 05:04:04;;;;;;;2.93;2.27;;;;;;;13.30;88.86;95597.34;4363158;32;20230;-60
2022/05/05 05:06:30;;;;;;;5.37;2.53;;;;;;;13.04;88.53;95599.81;4365769;32;20217;-60
2022/05/05 05:08:57;;;;;;;3.83;2.63;;;;;;;13.33;89.54;95596.75;4377976;32;20196;-60
2022/05/05 05:11:25;;;;;;;3.03;2.27;;;;;;;13.39;88.82;95600.88;4331430;32;20237;-60
2022/05/05 05:13:52;;;;;;;3.47;3.17;;;;;;;13.48;88.92;95598.28;4380750;32;20250;-60
2022/05/05 05:16:20;;;;;;;4.57;2.70;;;;;;;13.41;88.90;95601.34;4368170;32;20288;-60
2022/05/05 05:18:47;;;;;;;5.33;2.77;;;;;;;13.33;88.43;95596.75;4367980;32;20201;-60
2022/05/05 05:21:13;;;;;;;5.20;2.97;;;;;;;13.42;89.01;95604.81;4371075;32;20180;-60
2022/05/05 05:23:39;;;;;;;10.60;2.87;;;;;;;13.52;87.80;95599.22;4345820;32;20339;-60
2022/05/05 05:26:05;;;;;;;5.43;3.03;;;;;;;13.46;88.46;95605.00;4361891;32;20284;-60
2022/05/05 05:28:32;;;;;;;3.23;2.67;;;;;;;13.48;87.53;95603.59;4388471;32;20214;-60
2022/05/05 05:30:57;;;;;;;3.33;2.73;;;;;;;13.57;88.23;95607.09;4389631;32;20211;-60
2022/05/05 05:33:24;;;;;;;6.37;2.60;;;;;;;13.72;88.32;95604.03;4387341;32;20204;-60
2022/05/05 05:35:50;;;;;;;3.00;2.73;;;;;;;13.66;88.33;95605.28;4376684;32;20215;-60
2022/05/05 05:38:22;;;;;;;3.50;2.90;;;;;;;13.34;88.76;95600.19;4381799;32;20207;-60
2022/05/05 05:40:48;;;;;;;3.10;2.80;;;;;;;13.51;89.06;95613.63;4357207;32;20196;-60
2022/05/05 05:43:14;;;;;;;5.73;2.90;;;;;;;13.55;88.38;95598.62;4361233;32;20199;-60
2022/05/05 05:45:40;;;;;;;3.00;2.80;;;;;;;13.68;88.23;95605.75;4364470;32;20195;-60
2022/05/05 05:48:07;;;;;;;3.10;2.90;;;;;;;13.65;88.29;95606.38;4368945;32;20308;-60
2022/05/05 05:50:33;;;;;;;3.23;3.03;;;;;;;13.56;88.86;95610.84;4383451;32;20188;-60
2022/05/05 05:52:59;;;;;;;3.80;2.80;;;;;;;13.67;86.79;95616.72;4368531;32;20207;-60
2022/05/05 05:55:29;;;;;;;4.23;3.83;;;;;;;13.75;88.14;95619.44;4377226;32;20237;-60
2022/05/05 05:57:57;;;;;;;3.10;2.90;;;;;;;13.66;88.24;95617.81;4355338;32;20246;-60
2022/05/05 06:00:23;;;;;;;5.03;3.10;;;;;;;13.52;88.29;95615.22;4376343;32;20196;-60
2022/05/05 06:05:33;;;;;;;4.60;3.40;;;;;;;13.70;88.04;95619.59;4362895;32;20243;-60
2022/05/05 06:08:06;;;;;;;3.47;3.27;;;;;;;13.70;87.89;95619.59;4352398;32;20227;-60
2022/05/05 06:10:36;;;;;;;3.80;3.40;;;;;;;13.80;86.88;95617.72;4373989;32;20184;-60
2022/05/05 06:13:03;;;;;;;3.67;3.37;;;;;;;13.91;87.42;95632.41;4395620;32;20196;-60
2022/05/05 06:15:30;;;;;;;5.03;4.53;;;;;;;13.90;87.06;95626.28;4379460;32;20236;-60
2022/05/05 06:17:56;;;;;;;4.63;4.23;;;;;;;13.99;86.04;95626.28;4371870;32;20223;-60
2022/05/05 06:20:22;;;;;;;3.83;3.50;;;;;;;13.79;85.95;95626.81;4394278;32;20192;-60
2022/05/05 06:22:51;;;;;;;3.97;3.50;;;;;;;14.05;86.73;95622.41;4387641;32;20211;-60
2022/05/05 06:25:20;;;;;;;14.67;4.60;;;;;;;13.92;87.67;95618.75;4362412;32;20226;-59
2022/05/05 06:27:48;;;;;;;46.27;7.60;;;;;;;13.99;88.18;95615.62;4348872;32;20279;-60
2022/05/05 06:30:16;;;;;;;6.93;5.50;;;;;;;14.17;86.74;95614.59;4364994;32;20203;-60
2022/05/05 06:32:46;;;;;;;31.63;6.30;;;;;;;14.18;82.86;95621.50;4372728;32;20188;-60
2022/05/05 06:35:13;;;;;;;6.30;5.70;;;;;;;14.31;84.51;95619.84;4391156;32;20271;-60
2022/05/05 06:37:39;;;;;;;22.10;6.57;;;;;;;14.26;82.19;95625.31;4393009;32;20192;-60
2022/05/05 06:40:06;;;;;;;10.97;5.23;;;;;;;14.27;83.14;95625.00;4395300;32;20227;-60
2022/05/05 06:42:33;;;;;;;11.70;5.53;;;;;;;14.53;83.82;95624.34;4366240;32;20204;-60
2022/05/05 06:44:59;;;;;;;15.80;7.17;;;;;;;14.61;82.48;95621.66;4383909;32;20235;-60
2022/05/05 06:47:26;;;;;;;7.03;6.30;;;;;;;14.56;81.43;95627.16;4377151;32;20248;-60
2022/05/05 06:49:52;;;;;;;9.43;5.53;;;;;;;14.49;82.66;95623.38;4387737;32;20196;-60
2022/05/05 06:52:22;;;;;;;6.47;5.67;;;;;;;14.64;81.70;95628.28;4377636;32;20294;-61
2022/05/05 06:54:50;;;;;;;9.73;5.60;;;;;;;14.83;80.08;95630.66;4336888;32;20264;-60
2022/05/05 06:57:16;;;;;;;9.60;6.20;;;;;;;14.89;79.29;95626.75;4376208;32;20202;-60
2022/05/05 06:59:43;;;;;;;5.70;5.20;;;;;;;15.08;78.51;95628.03;4378100;32;20237;-60
2022/05/05 07:02:11;;;;;;;7.67;6.10;;;;;;;15.14;77.92;95631.34;4393691;32;22887;-60
2022/05/05 07:07:24;;;;;;;7.00;5.33;;;;;;;15.09;80.23;95642.19;4313307;32;20227;-60
2022/05/05 07:12:37;;;;;;;5.30;4.73;;;;;;;15.22;77.61;95651.13;4393868;32;20214;-61
2022/05/05 07:15:07;;;;;;;6.10;5.60;;;;;;;15.39;77.72;95640.44;4355756;32;20231;-61
2022/05/05 07:17:33;;;;;;;6.73;6.07;;;;;;;15.29;78.03;95654.13;4363389;32;20193;-61
2022/05/05 07:20:01;;;;;;;6.90;5.80;;;;;;;15.40;78.08;95658.03;4379286;32;20199;-61
2022/05/05 07:22:28;;;;;;;7.17;5.57;;;;;;;15.29;77.65;95649.56;4393023;32;20237;-60
2022/05/05 07:24:54;;;;;;;9.23;5.33;;;;;;;15.21;76.78;95657.56;4363723;32;20216;-61
2022/05/05 07:27:21;;;;;;;6.07;5.57;;;;;;;15.24;76.26;95657.75;4376380;32;20188;-60
2022/05/05 07:29:48;;;;;;;6.00;5.60;;;;;;;15.19;76.55;95659.78;4379764;32;20219;-61
2022/05/05 07:32:17;;;;;;;6.43;5.97;;;;;;;15.29;76.86;95668.28;4376738;32;20251;-61
2022/05/05 07:34:43;;;;;;;6.93;5.73;;;;;;;15.25;75.89;95671.87;4377358;32;20200;-61
2022/05/05 07:37:13;;;;;;;6.90;6.30;;;;;;;15.41;77.15;95675.66;4376704;32;20267;-61
2022/05/05 07:39:40;;;;;;;6.07;5.57;;;;;;;15.59;77.54;95679.94;4369410;32;20193;-61
2022/05/05 07:42:08;;;;;;;6.93;6.07;;;;;;;15.57;76.47;95674.13;4378495;32;20259;-61
2022/05/05 07:44:35;;;;;;;6.27;5.77;;;;;;;15.71;76.12;95677.41;4389069;32;20214;-61
2022/05/05 07:47:01;;;;;;;17.13;12.53;;;;;;;15.78;75.21;95680.41;4365542;32;20189;-61
2022/05/05 07:49:26;;;;;;;21.10;14.00;;;;;;;15.93;74.56;95676.44;4335153;32;20212;-62
2022/05/05 07:51:52;;;;;;;7.77;7.17;;;;;;;16.12;76.07;95676.06;4342084;32;20189;-61
2022/05/05 07:54:34;;;;;;;12.57;10.80;;;;;;;16.21;75.42;95676.06;4346646;32;20197;-61
2022/05/05 07:57:00;;;;;;;9.83;4.10;;;;;;;16.25;74.46;95677.75;4341775;32;20287;-44
2022/05/05 07:59:28;;;;;;;6.37;5.73;;;;;;;17.66;73.67;95679.03;4367100;32;20259;-48
2022/05/05 08:01:55;;;;;;;7.50;6.67;;;;;;;17.49;69.50;95679.13;4366834;32;20208;-46
2022/05/05 08:04:21;;;;;;;19.10;8.30;;;;;;;17.78;67.26;95673.72;4360532;32;20197;-48
2022/05/05 08:06:48;;;;;;;8.30;6.30;;;;;;;18.49;69.32;95680.72;4347632;32;20215;-46
2022/05/05 08:09:14;;;;;;;12.73;6.13;;;;;;;18.96;65.38;95683.75;4375452;32;20211;-48
2022/05/05 08:11:42;;;;;;;6.23;5.23;;;;;;;19.18;66.35;95672.50;4354202;32;20276;-44
2022/05/05 08:14:08;;;;;;;5.67;5.10;;;;;;;19.49;64.61;95676.50;4368124;32;20189;-46
2022/05/05 08:16:34;;;;;;;5.43;4.93;;;;;;;19.89;63.24;95679.97;4376014;32;20215;-45
2022/05/05 08:19:01;;;;;;;6.60;5.77;;;;;;;20.08;62.15;95681.22;4362410;32;20205;-46
2022/05/05 08:21:30;;;;;;;6.27;5.77;;;;;;;20.01;61.62;95681.00;4332040;32;20277;-46
2022/05/05 08:29:26;;;;;;;5.93;5.07;;;;;;;19.97;61.33;95680.13;4332661;32;20272;-47
2022/05/05 08:31:52;;;;;;;9.03;6.63;;;;;;;19.88;61.18;95681.09;4354995;32;20215;-49
2022/05/05 08:34:19;;;;;;;5.40;5.00;;;;;;;19.74;60.62;95680.72;4355788;32;20247;-48
2022/05/05 08:36:47;;;;;;;4.80;4.37;;;;;;;19.13;62.75;95680.81;4348599;32;20201;-48
2022/05/05 08:39:14;;;;;;;5.03;4.63;;;;;;;19.53;62.79;95669.34;4357511;32;20197;-45
2022/05/05 08:41:40;;;;;;;7.63;7.03;;;;;;;19.68;62.33;95682.06;4370019;32;20353;-61
2022/05/05 08:44:10;;;;;;;8.67;7.90;;;;;;;18.69;61.92;95689.81;4341621;32;20247;-61
2022/05/05 08:46:39;;;;;;;8.37;7.77;;;;;;;18.20;64.60;95697.78;4359039;32;20240;-62
2022/05/05 08:49:06;;;;;;;7.93;7.13;;;;;;;17.99;66.54;95697.03;4357082;32;20200;-62
2022/05/05 08:51:46;;;;;;;7.10;6.63;;;;;;;17.53;66.79;95693.47;4373138;32;20188;-62
2022/05/05 08:54:16;;;;;;;7.50;6.77;;;;;;;17.32;68.71;95698.84;4327700;32;20259;-61
2022/05/05 08:56:45;;;;;;;7.40;6.90;;;;;;;16.99;70.99;95704.09;4333594;32;20192;-62
2022/05/05 08:59:16;;;;;;;10.73;9.87;;;;;;;16.92;69.30;95700.34;4366397;32;20251;-61
2022/05/05 09:01:44;;;;;;;9.13;6.70;;;;;;;16.83;69.15;95703.09;4355980;32;20188;-61
2022/05/05 09:04:11;;;;;;;7.40;6.77;;;;;;;16.79;68.98;95697.59;4351369;32;20181;-62
2022/05/05 09:06:44;;;;;;;8.80;7.70;;;;;;;16.81;69.85;95691.91;4352852;32;20203;-59
2022/05/05 09:09:37;;;;;;;7.83;7.13;;;;;;;16.85;68.59;95698.16;4351587;32;20201;-60
2022/05/05 09:12:21;;;;;;;7.87;7.23;;;;;;;16.72;67.79;95685.78;4366406;32;20188;-60
2022/05/05 09:14:53;;;;;;;7.43;6.93;;;;;;;16.92;67.92;95703.03;4329951;32;20208;-60
2022/05/05 09:17:29;;;;;;;7.33;6.80;;;;;;;16.91;66.51;95704.13;4339230;32;20231;-61
2022/05/05 09:19:57;;;;;;;6.83;6.40;;;;;;;16.87;67.46;95706.69;4359753;32;20212;-60
2022/05/05 09:22:25;;;;;;;7.23;6.47;;;;;;;17.01;67.69;95701.87;4331017;32;20219;-60
2022/05/05 09:24:53;;;;;;;7.20;6.50;;;;;;;16.99;67.38;95700.63;4354096;32;20208;-60
2022/05/05 09:27:28;;;;;;;6.60;6.10;;;;;;;16.95;66.24;95700.50;4363220;32;20197;-60
2022/05/05 09:30:01;;;;;;;7.37;6.67;;;;;;;17.00;67.44;95696.84;4380589;32;20195;-59
2022/05/05 09:32:43;;;;;;;7.57;6.93;;;;;;;17.07;67.68;95695.22;4315136;32;20248;-61
2022/05/05 09:35:17;;;;;;;7.80;7.00;;;;;;;17.01;68.13;95701.87;4326893;32;20248;-63
2022/05/05 09:37:48;;;;;;;7.07;6.47;;;;;;;16.99;68.76;95693.38;4341144;32;20202;-59
2022/05/05 09:40:21;;;;;;;7.80;7.10;;;;;;;17.10;67.06;95694.56;4315802;32;20193;-61
2022/05/05 09:42:51;;;;;;;7.30;6.60;;;;;;;17.08;66.59;95694.09;4344635;32;20257;-58
2022/05/05 09:45:18;;;;;;;7.90;7.30;;;;;;;17.21;65.56;95688.81;4356354;32;20223;-59
2022/05/05 09:47:49;;;;;;;6.97;6.40;;;;;;;17.15;66.28;95697.06;4327492;32;20189;-61
2022/05/05 09:50:21;;;;;;;6.57;5.97;;;;;;;17.18;67.43;95696.41;4323581;32;20284;-58
2022/05/05 09:58:22;;;;;;;5.87;5.43;;;;;;;17.21;63.44;95694.19;4320121;32;20207;-58
2022/05/05 10:01:04;;;;;;;5.93;5.40;;;;;;;17.17;62.64;95694.84;4347948;32;20307;-60
2022/05/05 10:04:05;;;;;;;5.73;5.27;;;;;;;17.14;62.52;95698.16;4324582;32;20288;-60
2022/05/05 10:06:42;;;;;;;6.13;5.13;;;;;;;17.08;62.35;95691.41;4330659;32;20181;-58
2022/05/05 10:09:14;;;;;;;5.60;5.30;;;;;;;17.14;64.33;95698.16;4306781;32;20227;-61
2022/05/05 10:11:40;;;;;;;5.77;5.40;;;;;;;17.10;62.69;95699.12;4311385;32;20199;-61
2022/05/05 10:14:09;;;;;;;5.60;5.17;;;;;;;17.11;63.01;95693.44;4336452;32;20227;-61
2022/05/05 10:16:36;;;;;;;5.13;4.83;;;;;;;17.05;63.29;95692.06;4343067;32;20203;-60
2022/05/05 10:19:03;;;;;;;5.33;4.97;;;;;;;17.08;64.01;95691.41;4301449;32;20257;-60
2022/05/05 10:21:44;;;;;;;5.10;4.80;;;;;;;17.13;64.63;95685.88;4293764;32;20341;-59
2022/05/05 10:24:26;;;;;;;4.90;4.70;;;;;;;17.37;62.72;95682.56;4311418;32;20227;-60
2022/05/05 10:26:55;;;;;;;5.33;4.93;;;;;;;17.53;62.36;95685.41;4330954;32;20181;-60
2022/05/05 10:29:43;;;;;;;5.33;4.93;;;;;;;17.56;61.12;95676.72;4319847;32;20220;-60
2022/05/05 10:32:25;;;;;;;10.13;4.50;;;;;;;17.57;60.35;95675.59;4336269;32;20192;-60
2022/05/05 10:35:07;;;;;;;10.47;9.57;;;;;;;17.56;61.11;95673.25;4340149;32;20189;-60
2022/05/05 10:37:37;;;;;;;5.93;5.53;;;;;;;17.60;60.91;95669.59;4337339;32;20212;-60
2022/05/05 10:40:03;;;;;;;5.10;4.70;;;;;;;17.60;60.25;95663.44;4333579;32;20261;-60
2022/05/05 10:42:44;;;;;;;4.53;4.23;;;;;;;17.63;61.02;95668.94;4336834;32;20322;-60
2022/05/05 10:45:19;;;;;;;4.60;4.30;;;;;;;17.71;62.17;95670.75;4335972;32;20228;-60
2022/05/05 10:47:52;;;;;;;4.80;4.53;;;;;;;17.74;60.90;95674.69;4357172;32;20203;-60
2022/05/05 10:50:30;;;;;;;4.97;4.50;;;;;;;17.73;60.13;95676.59;4355638;32;20246;-60
2022/05/05 10:52:58;;;;;;;4.53;4.23;;;;;;;17.81;59.85;95675.75;4365068;32;20192;-60
2022/05/05 10:55:42;;;;;;;5.07;4.67;;;;;;;17.90;57.40;95672.16;4354806;32;20197;-60
2022/05/05 10:58:10;;;;;;;4.43;4.23;;;;;;;17.87;57.52;95659.44;4344732;32;20200;-60
2022/05/05 11:00:44;;;;;;;6.37;5.87;;;;;;;18.02;58.92;95667.62;4309257;32;20185;-60
2022/05/05 11:03:13;;;;;;;5.40;5.10;;;;;;;18.13;59.62;95662.63;4357925;32;20203;-59
2022/05/05 11:05:41;;;;;;;5.07;4.73;;;;;;;18.18;61.38;95659.72;4346953;32;20263;-62
2022/05/05 11:08:09;;;;;;;5.63;5.23;;;;;;;18.38;60.11;95666.91;4370880;32;20185;-60
2022/05/05 11:13:42;;;;;;;5.53;5.23;;;;;;;18.32;59.32;95654.81;4369531;32;20267;-60
2022/05/05 11:22:20;;;;;;;6.10;5.60;;;;;;;18.27;58.75;95652.38;4299371;33;20209;-60
2022/05/05 11:24:48;;;;;;;7.20;6.50;;;;;;;18.14;60.08;95642.69;4331096;32;20199;-60
2022/05/05 11:27:27;;;;;;;6.40;5.97;;;;;;;18.16;59.91;95637.78;4351729;32;20196;-59
2022/05/05 11:29:55;;;;;;;5.90;5.50;;;;;;;18.08;58.39;95638.69;4353264;32;20192;-59
2022/05/05 11:32:32;;;;;;;5.33;4.93;;;;;;;18.01;59.95;95636.53;4356065;32;20191;-60
2022/05/05 11:34:58;;;;;;;6.90;4.80;;;;;;;17.97;59.23;95627.56;4342686;32;20184;-58
2022/05/05 11:37:29;;;;;;;5.23;4.93;;;;;;;17.92;59.86;95635.03;4367718;32;20202;-60
2022/05/05 11:39:55;;;;;;;5.40;5.10;;;;;;;17.94;59.40;95632.81;4351702;32;20248;-59
2022/05/05 11:42:21;;;;;;;5.23;4.93;;;;;;;17.97;57.92;95629.47;4357796;32;20208;-58
2022/05/05 11:44:48;;;;;;;5.73;5.20;;;;;;;18.04;57.68;95632.41;4342125;32;20223;-59
2022/05/05 11:47:18;;;;;;;5.10;4.80;;;;;;;18.08;58.09;95622.56;4345822;32;20216;-59
2022/05/05 11:49:48;;;;;;;5.27;4.87;;;;;;;18.21;57.69;95621.47;4358832;32;20191;-59
2022/05/05 11:52:21;;;;;;;5.40;5.00;;;;;;;18.36;58.12;95618.09;4338473;32;20189;-59
2022/05/05 11:54:52;;;;;;;5.63;5.23;;;;;;;18.34;59.59;95612.28;4349144;32;20246;-59
2022/05/05 11:57:33;;;;;;;6.47;5.97;;;;;;;18.34;60.98;95606.13;4374709;32;20248;-59
2022/05/05 12:02:44;;;;;;;6.90;5.63;;;;;;;18.37;60.98;95608.94;4326998;32;20226;-59
2022/05/05 12:05:12;;;;;;;6.50;6.00;;;;;;;18.39;59.81;95603.22;4358085;32;20287;-60
2022/05/05 12:07:38;;;;;;;8.93;8.13;;;;;;;18.37;59.96;95595.50;4352418;32;20257;-56
2022/05/05 12:10:08;;;;;;;7.23;6.73;;;;;;;18.25;59.11;95587.44;4361631;32;20290;-62
2022/05/05 12:12:37;;;;;;;7.53;6.97;;;;;;;18.14;59.94;95591.69;4354755;32;20252;-60
2022/05/05 12:15:06;;;;;;;8.37;7.63;;;;;;;18.22;60.26;95590.00;4360251;32;20208;-63
2022/05/05 12:17:42;;;;;;;7.77;7.27;;;;;;;18.25;59.75;95587.44;4328088;32;20306;-62
2022/05/05 12:20:13;;;;;;;7.40;6.80;;;;;;;18.26;59.10;95582.84;4356559;32;20188;-56
2022/05/05 12:22:40;;;;;;;6.77;6.27;;;;;;;18.29;60.58;95579.50;4365106;32;20185;-56
2022/05/05 12:25:15;;;;;;;6.90;6.27;;;;;;;18.33;59.05;95577.69;4359442;32;20243;-58
2022/05/05 12:28:01;;;;;;;7.27;6.67;;;;;;;18.38;57.72;95569.41;4357101;32;20188;-60